sensor_id;sensor_type;location;lat;lon;timestamp;P1;durP1;ratioP1;P2;durP2;ratioP2
16516;SDS011;8371;52.272;9.746;2023-08-31T00:00:35;2.63;;;2.53;;
16516;SDS011;8371;52.272;9.746;2023-08-31T00:03:01;2.50;;;2.40;;
16516;SDS011;8371;52.272;9.746;2023-08-31T00:05:28;2.37;;;2.27;;
16516;SDS011;8371;52.272;9.746;2023-08-31T00:07:54;2.70;;;2.60;;
16516;SDS011;8371;52.272;9.746;2023-08-31T00:10:20;2.10;;;2.10;;
16516;SDS011;8371;52.272;9.746;2023-08-31T00:12:45;2.70;;;2.50;;
16516;SDS011;8371;52.272;9.746;2023-08-31T00:15:11;2.50;;;2.40;;
16516;SDS011;8371;52.272;9.746;2023-08-31T00:17:37;2.00;;;2.00;;
16516;SDS011;8371;52.272;9.746;2023-08-31T00:20:03;2.13;;;2.10;;
16516;SDS011;8371;52.272;9.746;2023-08-31T00:22:32;2.17;;;2.13;;
16516;SDS011;8371;52.272;9.746;2023-08-31T00:24:58;2.63;;;2.53;;
16516;SDS011;8371;52.272;9.746;2023-08-31T00:27:24;2.30;;;2.20;;
16516;SDS011;8371;52.272;9.746;2023-08-31T00:29:49;2.13;;;2.03;;
16516;SDS011;8371;52.272;9.746;2023-08-31T00:32:20;2.50;;;2.40;;
16516;SDS011;8371;52.272;9.746;2023-08-31T00:34:44;2.17;;;2.10;;
16516;SDS011;8371;52.272;9.746;2023-08-31T00:37:10;3.10;;;2.83;;
16516;SDS011;8371;52.272;9.746;2023-08-31T00:39:35;2.50;;;2.40;;
16516;SDS011;8371;52.272;9.746;2023-08-31T00:42:01;2.70;;;2.60;;
16516;SDS011;8371;52.272;9.746;2023-08-31T00:44:27;2.50;;;2.10;;
16516;SDS011;8371;52.272;9.746;2023-08-31T00:46:52;2.57;;;2.47;;
16516;SDS011;8371;52.272;9.746;2023-08-31T00:49:18;2.53;;;2.43;;
16516;SDS011;8371;52.272;9.746;2023-08-31T00:51:45;2.57;;;2.47;;
16516;SDS011;8371;52.272;9.746;2023-08-31T00:54:15;2.10;;;2.00;;
16516;SDS011;8371;52.272;9.746;2023-08-31T00:56:42;2.80;;;2.53;;
16516;SDS011;8371;52.272;9.746;2023-08-31T00:59:08;2.50;;;2.40;;
16516;SDS011;8371;52.272;9.746;2023-08-31T01:01:45;2.60;;;2.50;;
16516;SDS011;8371;52.272;9.746;2023-08-31T01:04:21;2.60;;;2.50;;
16516;SDS011;8371;52.272;9.746;2023-08-31T01:07:01;2.47;;;2.27;;
16516;SDS011;8371;52.272;9.746;2023-08-31T01:12:26;2.63;;;2.53;;
16516;SDS011;8371;52.272;9.746;2023-08-31T01:14:56;1.90;;;1.90;;
16516;SDS011;8371;52.272;9.746;2023-08-31T01:17:24;2.63;;;2.53;;
16516;SDS011;8371;52.272;9.746;2023-08-31T01:19:54;2.43;;;2.30;;
16516;SDS011;8371;52.272;9.746;2023-08-31T01:22:29;2.63;;;2.53;;
16516;SDS011;8371;52.272;9.746;2023-08-31T01:24:54;3.43;;;3.23;;
16516;SDS011;8371;52.272;9.746;2023-08-31T01:27:20;2.63;;;2.53;;
16516;SDS011;8371;52.272;9.746;2023-08-31T01:29:46;2.57;;;2.47;;
16516;SDS011;8371;52.272;9.746;2023-08-31T01:32:11;2.63;;;2.53;;
16516;SDS011;8371;52.272;9.746;2023-08-31T01:34:37;2.87;;;2.77;;
16516;SDS011;8371;52.272;9.746;2023-08-31T01:37:10;2.70;;;2.60;;
16516;SDS011;8371;52.272;9.746;2023-08-31T01:42:15;3.20;;;3.10;;
16516;SDS011;8371;52.272;9.746;2023-08-31T01:44:42;3.20;;;3.10;;
16516;SDS011;8371;52.272;9.746;2023-08-31T01:47:12;4.17;;;3.73;;
16516;SDS011;8371;52.272;9.746;2023-08-31T01:49:39;3.50;;;3.27;;
16516;SDS011;8371;52.272;9.746;2023-08-31T01:52:05;3.47;;;3.33;;
16516;SDS011;8371;52.272;9.746;2023-08-31T01:54:31;4.17;;;3.77;;
16516;SDS011;8371;52.272;9.746;2023-08-31T01:56:58;4.07;;;3.97;;
16516;SDS011;8371;52.272;9.746;2023-08-31T01:59:24;4.40;;;4.10;;
16516;SDS011;8371;52.272;9.746;2023-08-31T02:01:50;4.10;;;3.90;;
16516;SDS011;8371;52.272;9.746;2023-08-31T02:04:15;4.63;;;4.23;;
16516;SDS011;8371;52.272;9.746;2023-08-31T02:06:41;4.40;;;4.17;;
16516;SDS011;8371;52.272;9.746;2023-08-31T02:09:07;3.50;;;3.40;;
16516;SDS011;8371;52.272;9.746;2023-08-31T02:11:32;4.10;;;3.90;;
16516;SDS011;8371;52.272;9.746;2023-08-31T02:14:00;3.67;;;3.57;;
16516;SDS011;8371;52.272;9.746;2023-08-31T02:16:26;4.23;;;4.03;;
16516;SDS011;8371;52.272;9.746;2023-08-31T02:18:51;3.90;;;3.80;;
16516;SDS011;8371;52.272;9.746;2023-08-31T02:21:17;4.07;;;3.87;;
16516;SDS011;8371;52.272;9.746;2023-08-31T02:23:43;4.10;;;3.90;;
16516;SDS011;8371;52.272;9.746;2023-08-31T02:26:10;4.80;;;3.63;;
16516;SDS011;8371;52.272;9.746;2023-08-31T02:28:36;4.17;;;3.87;;
16516;SDS011;8371;52.272;9.746;2023-08-31T02:31:02;4.20;;;4.10;;
16516;SDS011;8371;52.272;9.746;2023-08-31T02:33:29;4.73;;;4.40;;
16516;SDS011;8371;52.272;9.746;2023-08-31T02:35:54;4.10;;;3.90;;
16516;SDS011;8371;52.272;9.746;2023-08-31T02:38:21;4.50;;;4.20;;
16516;SDS011;8371;52.272;9.746;2023-08-31T02:40:47;4.23;;;4.03;;
16516;SDS011;8371;52.272;9.746;2023-08-31T02:43:13;3.87;;;3.67;;
16516;SDS011;8371;52.272;9.746;2023-08-31T02:45:39;3.93;;;3.83;;
16516;SDS011;8371;52.272;9.746;2023-08-31T02:48:08;3.67;;;3.57;;
16516;SDS011;8371;52.272;9.746;2023-08-31T02:50:34;4.00;;;3.80;;
16516;SDS011;8371;52.272;9.746;2023-08-31T02:53:00;3.37;;;3.27;;
16516;SDS011;8371;52.272;9.746;2023-08-31T02:55:26;3.37;;;3.27;;
16516;SDS011;8371;52.272;9.746;2023-08-31T02:57:52;4.30;;;4.00;;
16516;SDS011;8371;52.272;9.746;2023-08-31T03:00:18;3.63;;;3.33;;
16516;SDS011;8371;52.272;9.746;2023-08-31T03:02:46;3.53;;;3.43;;
16516;SDS011;8371;52.272;9.746;2023-08-31T03:05:12;3.80;;;3.50;;
16516;SDS011;8371;52.272;9.746;2023-08-31T03:07:38;3.80;;;3.60;;
16516;SDS011;8371;52.272;9.746;2023-08-31T03:10:04;8.27;;;3.70;;
16516;SDS011;8371;52.272;9.746;2023-08-31T03:12:30;4.13;;;4.00;;
16516;SDS011;8371;52.272;9.746;2023-08-31T03:14:56;3.80;;;3.70;;
16516;SDS011;8371;52.272;9.746;2023-08-31T03:17:22;3.20;;;3.10;;
16516;SDS011;8371;52.272;9.746;2023-08-31T03:19:48;4.97;;;4.63;;
16516;SDS011;8371;52.272;9.746;2023-08-31T03:22:14;3.57;;;3.47;;
16516;SDS011;8371;52.272;9.746;2023-08-31T03:24:40;3.63;;;3.53;;
16516;SDS011;8371;52.272;9.746;2023-08-31T03:27:07;3.77;;;3.50;;
16516;SDS011;8371;52.272;9.746;2023-08-31T03:29:33;3.20;;;3.10;;
16516;SDS011;8371;52.272;9.746;2023-08-31T03:31:59;4.20;;;3.90;;
16516;SDS011;8371;52.272;9.746;2023-08-31T03:34:29;3.80;;;3.60;;
16516;SDS011;8371;52.272;9.746;2023-08-31T03:36:56;3.30;;;3.20;;
16516;SDS011;8371;52.272;9.746;2023-08-31T03:39:23;3.10;;;3.00;;
16516;SDS011;8371;52.272;9.746;2023-08-31T03:41:49;3.27;;;3.17;;
16516;SDS011;8371;52.272;9.746;2023-08-31T03:44:15;3.00;;;2.90;;
16516;SDS011;8371;52.272;9.746;2023-08-31T03:46:42;3.93;;;3.17;;
16516;SDS011;8371;52.272;9.746;2023-08-31T03:51:46;3.37;;;3.17;;
16516;SDS011;8371;52.272;9.746;2023-08-31T03:54:12;2.93;;;2.83;;
16516;SDS011;8371;52.272;9.746;2023-08-31T03:56:38;2.77;;;2.67;;
16516;SDS011;8371;52.272;9.746;2023-08-31T03:59:04;3.03;;;2.83;;
16516;SDS011;8371;52.272;9.746;2023-08-31T04:01:30;2.67;;;2.57;;
16516;SDS011;8371;52.272;9.746;2023-08-31T04:03:56;3.00;;;2.80;;
16516;SDS011;8371;52.272;9.746;2023-08-31T04:06:22;3.50;;;3.30;;
16516;SDS011;8371;52.272;9.746;2023-08-31T04:08:48;2.90;;;2.70;;
16516;SDS011;8371;52.272;9.746;2023-08-31T04:11:13;3.30;;;3.10;;
16516;SDS011;8371;52.272;9.746;2023-08-31T04:13:39;3.10;;;2.87;;
16516;SDS011;8371;52.272;9.746;2023-08-31T04:16:05;6.63;;;3.17;;
16516;SDS011;8371;52.272;9.746;2023-08-31T04:18:30;3.30;;;3.20;;
16516;SDS011;8371;52.272;9.746;2023-08-31T04:20:56;2.83;;;2.73;;
16516;SDS011;8371;52.272;9.746;2023-08-31T04:23:24;3.13;;;2.93;;
16516;SDS011;8371;52.272;9.746;2023-08-31T04:25:49;3.80;;;3.60;;
16516;SDS011;8371;52.272;9.746;2023-08-31T04:28:16;3.27;;;3.17;;
16516;SDS011;8371;52.272;9.746;2023-08-31T04:30:42;3.30;;;3.10;;
16516;SDS011;8371;52.272;9.746;2023-08-31T04:33:08;3.83;;;3.23;;
16516;SDS011;8371;52.272;9.746;2023-08-31T04:35:34;3.50;;;3.40;;
16516;SDS011;8371;52.272;9.746;2023-08-31T04:38:00;3.63;;;3.50;;
16516;SDS011;8371;52.272;9.746;2023-08-31T04:40:27;3.97;;;3.37;;
16516;SDS011;8371;52.272;9.746;2023-08-31T04:42:53;4.10;;;3.90;;
16516;SDS011;8371;52.272;9.746;2023-08-31T04:45:19;4.23;;;4.03;;
16516;SDS011;8371;52.272;9.746;2023-08-31T04:47:44;4.80;;;4.60;;
16516;SDS011;8371;52.272;9.746;2023-08-31T04:50:10;4.67;;;4.33;;
16516;SDS011;8371;52.272;9.746;2023-08-31T04:52:36;7.87;;;4.77;;
16516;SDS011;8371;52.272;9.746;2023-08-31T04:55:02;5.83;;;5.33;;
16516;SDS011;8371;52.272;9.746;2023-08-31T04:57:33;5.50;;;5.20;;
16516;SDS011;8371;52.272;9.746;2023-08-31T04:59:59;5.37;;;4.97;;
16516;SDS011;8371;52.272;9.746;2023-08-31T05:02:24;5.77;;;5.47;;
16516;SDS011;8371;52.272;9.746;2023-08-31T05:04:50;6.57;;;6.17;;
16516;SDS011;8371;52.272;9.746;2023-08-31T05:07:17;6.23;;;5.93;;
16516;SDS011;8371;52.272;9.746;2023-08-31T05:09:42;5.80;;;5.50;;
16516;SDS011;8371;52.272;9.746;2023-08-31T05:12:08;5.13;;;4.93;;
16516;SDS011;8371;52.272;9.746;2023-08-31T05:14:34;5.87;;;5.57;;
16516;SDS011;8371;52.272;9.746;2023-08-31T05:17:03;5.70;;;5.50;;
16516;SDS011;8371;52.272;9.746;2023-08-31T05:19:30;6.07;;;5.67;;
16516;SDS011;8371;52.272;9.746;2023-08-31T05:21:55;5.20;;;5.00;;
16516;SDS011;8371;52.272;9.746;2023-08-31T05:24:21;5.93;;;5.70;;
16516;SDS011;8371;52.272;9.746;2023-08-31T05:26:48;6.20;;;5.97;;
16516;SDS011;8371;52.272;9.746;2023-08-31T05:29:14;6.50;;;6.13;;
16516;SDS011;8371;52.272;9.746;2023-08-31T05:31:40;6.23;;;5.90;;
16516;SDS011;8371;52.272;9.746;2023-08-31T05:34:06;5.77;;;5.57;;
16516;SDS011;8371;52.272;9.746;2023-08-31T05:36:34;5.80;;;5.50;;
16516;SDS011;8371;52.272;9.746;2023-08-31T05:39:00;6.57;;;6.07;;
16516;SDS011;8371;52.272;9.746;2023-08-31T05:41:25;6.03;;;5.83;;
16516;SDS011;8371;52.272;9.746;2023-08-31T05:43:52;6.37;;;6.07;;
16516;SDS011;8371;52.272;9.746;2023-08-31T05:46:18;6.03;;;5.57;;
16516;SDS011;8371;52.272;9.746;2023-08-31T05:48:43;6.43;;;6.23;;
16516;SDS011;8371;52.272;9.746;2023-08-31T05:51:09;6.50;;;6.30;;
16516;SDS011;8371;52.272;9.746;2023-08-31T05:53:35;6.60;;;6.27;;
16516;SDS011;8371;52.272;9.746;2023-08-31T05:56:00;6.63;;;6.23;;
16516;SDS011;8371;52.272;9.746;2023-08-31T05:58:36;6.30;;;6.10;;
16516;SDS011;8371;52.272;9.746;2023-08-31T06:01:01;6.17;;;5.97;;
16516;SDS011;8371;52.272;9.746;2023-08-31T06:03:27;6.83;;;6.53;;
16516;SDS011;8371;52.272;9.746;2023-08-31T06:05:55;7.17;;;6.73;;
16516;SDS011;8371;52.272;9.746;2023-08-31T06:08:21;6.77;;;6.37;;
16516;SDS011;8371;52.272;9.746;2023-08-31T06:10:47;6.67;;;6.37;;
16516;SDS011;8371;52.272;9.746;2023-08-31T06:13:13;6.70;;;6.40;;
16516;SDS011;8371;52.272;9.746;2023-08-31T06:15:39;6.47;;;6.17;;
16516;SDS011;8371;52.272;9.746;2023-08-31T06:18:05;7.20;;;6.70;;
16516;SDS011;8371;52.272;9.746;2023-08-31T06:20:31;7.43;;;6.97;;
16516;SDS011;8371;52.272;9.746;2023-08-31T06:22:57;7.63;;;7.17;;
16516;SDS011;8371;52.272;9.746;2023-08-31T06:25:23;7.00;;;6.70;;
16516;SDS011;8371;52.272;9.746;2023-08-31T06:27:48;5.80;;;5.50;;
16516;SDS011;8371;52.272;9.746;2023-08-31T06:30:14;5.90;;;5.60;;
16516;SDS011;8371;52.272;9.746;2023-08-31T06:32:44;5.53;;;5.33;;
16516;SDS011;8371;52.272;9.746;2023-08-31T06:35:11;6.10;;;5.73;;
16516;SDS011;8371;52.272;9.746;2023-08-31T06:37:38;5.43;;;5.17;;
16516;SDS011;8371;52.272;9.746;2023-08-31T06:40:08;5.03;;;4.83;;
16516;SDS011;8371;52.272;9.746;2023-08-31T06:42:38;5.40;;;5.13;;
16516;SDS011;8371;52.272;9.746;2023-08-31T06:45:05;4.77;;;4.57;;
16516;SDS011;8371;52.272;9.746;2023-08-31T06:47:32;4.90;;;4.70;;
16516;SDS011;8371;52.272;9.746;2023-08-31T06:49:58;4.90;;;4.70;;
16516;SDS011;8371;52.272;9.746;2023-08-31T06:52:25;5.20;;;4.70;;
16516;SDS011;8371;52.272;9.746;2023-08-31T06:54:51;4.30;;;4.10;;
16516;SDS011;8371;52.272;9.746;2023-08-31T06:57:19;4.87;;;4.47;;
16516;SDS011;8371;52.272;9.746;2023-08-31T06:59:44;4.83;;;4.53;;
16516;SDS011;8371;52.272;9.746;2023-08-31T07:02:10;5.70;;;5.40;;
16516;SDS011;8371;52.272;9.746;2023-08-31T07:04:36;5.00;;;4.80;;
16516;SDS011;8371;52.272;9.746;2023-08-31T07:07:01;4.60;;;4.50;;
16516;SDS011;8371;52.272;9.746;2023-08-31T07:09:27;4.50;;;4.40;;
16516;SDS011;8371;52.272;9.746;2023-08-31T07:11:53;4.47;;;4.13;;
16516;SDS011;8371;52.272;9.746;2023-08-31T07:14:19;3.40;;;3.30;;
16516;SDS011;8371;52.272;9.746;2023-08-31T07:16:44;4.37;;;4.17;;
16516;SDS011;8371;52.272;9.746;2023-08-31T07:19:10;3.63;;;3.53;;
16516;SDS011;8371;52.272;9.746;2023-08-31T07:21:36;3.83;;;3.63;;
16516;SDS011;8371;52.272;9.746;2023-08-31T07:24:02;3.57;;;3.47;;
16516;SDS011;8371;52.272;9.746;2023-08-31T07:26:27;4.20;;;4.00;;
16516;SDS011;8371;52.272;9.746;2023-08-31T07:28:54;4.47;;;3.13;;
16516;SDS011;8371;52.272;9.746;2023-08-31T07:31:19;3.80;;;3.70;;
16516;SDS011;8371;52.272;9.746;2023-08-31T07:33:45;4.23;;;3.83;;
16516;SDS011;8371;52.272;9.746;2023-08-31T07:36:11;3.23;;;3.13;;
16516;SDS011;8371;52.272;9.746;2023-08-31T07:38:36;3.00;;;2.90;;
16516;SDS011;8371;52.272;9.746;2023-08-31T07:41:02;2.93;;;2.83;;
16516;SDS011;8371;52.272;9.746;2023-08-31T07:43:29;3.10;;;3.00;;
16516;SDS011;8371;52.272;9.746;2023-08-31T07:45:55;2.93;;;2.77;;
16516;SDS011;8371;52.272;9.746;2023-08-31T07:48:21;3.00;;;2.90;;
16516;SDS011;8371;52.272;9.746;2023-08-31T07:50:47;2.87;;;2.77;;
16516;SDS011;8371;52.272;9.746;2023-08-31T07:53:14;3.30;;;3.20;;
16516;SDS011;8371;52.272;9.746;2023-08-31T07:55:40;2.63;;;2.53;;
16516;SDS011;8371;52.272;9.746;2023-08-31T07:58:06;2.83;;;2.73;;
16516;SDS011;8371;52.272;9.746;2023-08-31T08:00:32;2.70;;;2.60;;
16516;SDS011;8371;52.272;9.746;2023-08-31T08:02:58;2.70;;;2.60;;
16516;SDS011;8371;52.272;9.746;2023-08-31T08:05:23;2.87;;;2.77;;
16516;SDS011;8371;52.272;9.746;2023-08-31T08:07:49;2.33;;;2.23;;
16516;SDS011;8371;52.272;9.746;2023-08-31T08:10:15;2.40;;;2.40;;
16516;SDS011;8371;52.272;9.746;2023-08-31T08:12:41;2.63;;;2.53;;
16516;SDS011;8371;52.272;9.746;2023-08-31T08:15:11;3.73;;;2.53;;
16516;SDS011;8371;52.272;9.746;2023-08-31T08:17:38;2.33;;;2.23;;
16516;SDS011;8371;52.272;9.746;2023-08-31T08:20:04;2.70;;;2.50;;
16516;SDS011;8371;52.272;9.746;2023-08-31T08:22:31;2.47;;;2.37;;
16516;SDS011;8371;52.272;9.746;2023-08-31T08:24:57;2.93;;;2.63;;
16516;SDS011;8371;52.272;9.746;2023-08-31T08:27:23;2.47;;;2.30;;
16516;SDS011;8371;52.272;9.746;2023-08-31T08:29:48;2.40;;;2.40;;
16516;SDS011;8371;52.272;9.746;2023-08-31T08:32:14;2.93;;;2.73;;
16516;SDS011;8371;52.272;9.746;2023-08-31T08:34:40;2.73;;;2.63;;
16516;SDS011;8371;52.272;9.746;2023-08-31T08:37:06;2.40;;;2.30;;
16516;SDS011;8371;52.272;9.746;2023-08-31T08:39:32;1.97;;;1.97;;
16516;SDS011;8371;52.272;9.746;2023-08-31T08:41:58;2.17;;;2.13;;
16516;SDS011;8371;52.272;9.746;2023-08-31T08:44:25;2.30;;;2.20;;
16516;SDS011;8371;52.272;9.746;2023-08-31T08:46:52;2.47;;;2.37;;
16516;SDS011;8371;52.272;9.746;2023-08-31T08:49:18;2.37;;;2.27;;
16516;SDS011;8371;52.272;9.746;2023-08-31T08:51:45;2.07;;;1.97;;
16516;SDS011;8371;52.272;9.746;2023-08-31T08:54:12;2.53;;;2.27;;
16516;SDS011;8371;52.272;9.746;2023-08-31T08:56:39;1.80;;;1.80;;
16516;SDS011;8371;52.272;9.746;2023-08-31T08:59:05;1.93;;;1.93;;
16516;SDS011;8371;52.272;9.746;2023-08-31T09:01:32;3.60;;;2.27;;
16516;SDS011;8371;52.272;9.746;2023-08-31T09:04:00;1.47;;;1.47;;
16516;SDS011;8371;52.272;9.746;2023-08-31T09:06:27;1.77;;;1.67;;
16516;SDS011;8371;52.272;9.746;2023-08-31T09:08:56;1.90;;;1.83;;
16516;SDS011;8371;52.272;9.746;2023-08-31T09:11:22;2.03;;;1.93;;
16516;SDS011;8371;52.272;9.746;2023-08-31T09:13:49;2.93;;;1.83;;
16516;SDS011;8371;52.272;9.746;2023-08-31T09:16:28;1.63;;;1.63;;
16516;SDS011;8371;52.272;9.746;2023-08-31T09:18:55;1.63;;;1.63;;
16516;SDS011;8371;52.272;9.746;2023-08-31T09:21:22;1.80;;;1.80;;
16516;SDS011;8371;52.272;9.746;2023-08-31T09:23:58;2.17;;;2.07;;
16516;SDS011;8371;52.272;9.746;2023-08-31T09:26:24;2.40;;;2.20;;
16516;SDS011;8371;52.272;9.746;2023-08-31T09:28:50;1.73;;;1.73;;
16516;SDS011;8371;52.272;9.746;2023-08-31T09:31:16;2.00;;;1.90;;
16516;SDS011;8371;52.272;9.746;2023-08-31T09:33:51;1.73;;;1.67;;
16516;SDS011;8371;52.272;9.746;2023-08-31T09:36:17;2.80;;;2.70;;
16516;SDS011;8371;52.272;9.746;2023-08-31T09:38:45;2.33;;;2.23;;
16516;SDS011;8371;52.272;9.746;2023-08-31T09:41:11;2.20;;;2.17;;
16516;SDS011;8371;52.272;9.746;2023-08-31T09:43:37;1.77;;;1.77;;
16516;SDS011;8371;52.272;9.746;2023-08-31T09:46:03;1.73;;;1.73;;
16516;SDS011;8371;52.272;9.746;2023-08-31T09:48:30;2.13;;;2.10;;
16516;SDS011;8371;52.272;9.746;2023-08-31T09:50:56;2.10;;;2.00;;
16516;SDS011;8371;52.272;9.746;2023-08-31T09:53:25;2.10;;;2.00;;
16516;SDS011;8371;52.272;9.746;2023-08-31T09:55:54;2.07;;;1.97;;
16516;SDS011;8371;52.272;9.746;2023-08-31T09:58:21;1.80;;;1.70;;
16516;SDS011;8371;52.272;9.746;2023-08-31T10:00:51;1.60;;;1.60;;
16516;SDS011;8371;52.272;9.746;2023-08-31T10:03:18;1.57;;;1.57;;
16516;SDS011;8371;52.272;9.746;2023-08-31T10:05:46;1.80;;;1.80;;
16516;SDS011;8371;52.272;9.746;2023-08-31T10:08:14;1.87;;;1.77;;
16516;SDS011;8371;52.272;9.746;2023-08-31T10:10:40;1.33;;;1.33;;
16516;SDS011;8371;52.272;9.746;2023-08-31T10:13:06;1.40;;;1.40;;
16516;SDS011;8371;52.272;9.746;2023-08-31T10:15:33;1.67;;;1.57;;
16516;SDS011;8371;52.272;9.746;2023-08-31T10:18:05;1.57;;;1.57;;
16516;SDS011;8371;52.272;9.746;2023-08-31T10:20:32;1.47;;;1.47;;
16516;SDS011;8371;52.272;9.746;2023-08-31T10:22:59;1.40;;;1.40;;
16516;SDS011;8371;52.272;9.746;2023-08-31T10:28:20;1.90;;;1.90;;
16516;SDS011;8371;52.272;9.746;2023-08-31T10:31:03;1.70;;;1.70;;
16516;SDS011;8371;52.272;9.746;2023-08-31T10:36:14;1.70;;;1.70;;
16516;SDS011;8371;52.272;9.746;2023-08-31T10:38:46;1.53;;;1.53;;
16516;SDS011;8371;52.272;9.746;2023-08-31T10:43:52;1.50;;;1.40;;
16516;SDS011;8371;52.272;9.746;2023-08-31T10:46:33;1.70;;;1.67;;
16516;SDS011;8371;52.272;9.746;2023-08-31T10:51:44;1.30;;;1.30;;
16516;SDS011;8371;52.272;9.746;2023-08-31T10:54:21;1.50;;;1.50;;
16516;SDS011;8371;52.272;9.746;2023-08-31T10:56:54;1.40;;;1.40;;
16516;SDS011;8371;52.272;9.746;2023-08-31T10:59:22;1.27;;;1.27;;
16516;SDS011;8371;52.272;9.746;2023-08-31T11:01:55;1.40;;;1.40;;
16516;SDS011;8371;52.272;9.746;2023-08-31T11:04:27;1.83;;;1.80;;
16516;SDS011;8371;52.272;9.746;2023-08-31T11:09:39;1.60;;;1.60;;
16516;SDS011;8371;52.272;9.746;2023-08-31T11:12:05;1.60;;;1.60;;
16516;SDS011;8371;52.272;9.746;2023-08-31T11:14:31;1.83;;;1.83;;
16516;SDS011;8371;52.272;9.746;2023-08-31T11:16:56;1.40;;;1.40;;
16516;SDS011;8371;52.272;9.746;2023-08-31T11:19:22;1.50;;;1.50;;
16516;SDS011;8371;52.272;9.746;2023-08-31T11:21:48;1.50;;;1.40;;
16516;SDS011;8371;52.272;9.746;2023-08-31T11:24:14;1.67;;;1.67;;
16516;SDS011;8371;52.272;9.746;2023-08-31T11:26:41;1.50;;;1.50;;
16516;SDS011;8371;52.272;9.746;2023-08-31T11:29:07;1.33;;;1.33;;
16516;SDS011;8371;52.272;9.746;2023-08-31T11:31:37;1.20;;;1.20;;
16516;SDS011;8371;52.272;9.746;2023-08-31T11:34:07;2.30;;;2.20;;
16516;SDS011;8371;52.272;9.746;2023-08-31T11:36:38;1.60;;;1.60;;
16516;SDS011;8371;52.272;9.746;2023-08-31T11:39:06;1.50;;;1.40;;
16516;SDS011;8371;52.272;9.746;2023-08-31T11:41:32;2.03;;;1.40;;
16516;SDS011;8371;52.272;9.746;2023-08-31T11:44:00;1.33;;;1.33;;
16516;SDS011;8371;52.272;9.746;2023-08-31T11:46:27;1.40;;;1.40;;
16516;SDS011;8371;52.272;9.746;2023-08-31T11:48:53;1.10;;;1.10;;
16516;SDS011;8371;52.272;9.746;2023-08-31T11:51:19;1.40;;;1.40;;
16516;SDS011;8371;52.272;9.746;2023-08-31T11:53:46;1.37;;;1.37;;
16516;SDS011;8371;52.272;9.746;2023-08-31T11:56:12;1.10;;;1.10;;
16516;SDS011;8371;52.272;9.746;2023-08-31T11:58:41;1.40;;;1.40;;
16516;SDS011;8371;52.272;9.746;2023-08-31T12:01:08;1.30;;;1.30;;
16516;SDS011;8371;52.272;9.746;2023-08-31T12:03:43;1.10;;;1.10;;
16516;SDS011;8371;52.272;9.746;2023-08-31T12:06:18;1.10;;;1.10;;
16516;SDS011;8371;52.272;9.746;2023-08-31T12:08:44;1.47;;;1.37;;
16516;SDS011;8371;52.272;9.746;2023-08-31T12:11:10;0.90;;;0.90;;
16516;SDS011;8371;52.272;9.746;2023-08-31T12:13:36;0.97;;;0.97;;
16516;SDS011;8371;52.272;9.746;2023-08-31T12:16:02;0.80;;;0.80;;
16516;SDS011;8371;52.272;9.746;2023-08-31T12:18:30;0.90;;;0.90;;
16516;SDS011;8371;52.272;9.746;2023-08-31T12:20:59;1.00;;;1.00;;
16516;SDS011;8371;52.272;9.746;2023-08-31T12:23:25;1.00;;;1.00;;
16516;SDS011;8371;52.272;9.746;2023-08-31T12:25:52;0.83;;;0.83;;
16516;SDS011;8371;52.272;9.746;2023-08-31T12:28:19;1.10;;;1.10;;
16516;SDS011;8371;52.272;9.746;2023-08-31T12:30:46;0.90;;;0.90;;
16516;SDS011;8371;52.272;9.746;2023-08-31T12:33:13;1.00;;;1.00;;
16516;SDS011;8371;52.272;9.746;2023-08-31T12:35:39;0.70;;;0.70;;
16516;SDS011;8371;52.272;9.746;2023-08-31T12:38:05;2.60;;;1.00;;
16516;SDS011;8371;52.272;9.746;2023-08-31T12:40:31;0.93;;;0.93;;
16516;SDS011;8371;52.272;9.746;2023-08-31T12:42:56;0.80;;;0.80;;
16516;SDS011;8371;52.272;9.746;2023-08-31T12:45:22;0.93;;;0.80;;
16516;SDS011;8371;52.272;9.746;2023-08-31T12:47:48;2.00;;;0.80;;
16516;SDS011;8371;52.272;9.746;2023-08-31T12:50:13;2.17;;;0.70;;
16516;SDS011;8371;52.272;9.746;2023-08-31T12:52:39;0.87;;;0.67;;
16516;SDS011;8371;52.272;9.746;2023-08-31T12:55:07;0.50;;;0.50;;
16516;SDS011;8371;52.272;9.746;2023-08-31T12:57:33;0.30;;;0.30;;
16516;SDS011;8371;52.272;9.746;2023-08-31T12:59:59;0.63;;;0.63;;
16516;SDS011;8371;52.272;9.746;2023-08-31T13:02:24;0.30;;;0.30;;
16516;SDS011;8371;52.272;9.746;2023-08-31T13:04:50;2.57;;;0.50;;
16516;SDS011;8371;52.272;9.746;2023-08-31T13:07:16;0.50;;;0.50;;
16516;SDS011;8371;52.272;9.746;2023-08-31T13:09:42;0.47;;;0.47;;
16516;SDS011;8371;52.272;9.746;2023-08-31T13:12:07;0.30;;;0.30;;
16516;SDS011;8371;52.272;9.746;2023-08-31T13:14:33;0.30;;;0.30;;
16516;SDS011;8371;52.272;9.746;2023-08-31T13:17:00;0.40;;;0.40;;
16516;SDS011;8371;52.272;9.746;2023-08-31T13:19:25;0.57;;;0.40;;
16516;SDS011;8371;52.272;9.746;2023-08-31T13:21:51;0.50;;;0.50;;
16516;SDS011;8371;52.272;9.746;2023-08-31T13:24:17;0.47;;;0.47;;
16516;SDS011;8371;52.272;9.746;2023-08-31T13:26:43;0.43;;;0.40;;
16516;SDS011;8371;52.272;9.746;2023-08-31T13:29:10;0.60;;;0.50;;
16516;SDS011;8371;52.272;9.746;2023-08-31T13:31:36;0.40;;;0.40;;
16516;SDS011;8371;52.272;9.746;2023-08-31T13:34:02;0.37;;;0.37;;
16516;SDS011;8371;52.272;9.746;2023-08-31T13:36:28;0.33;;;0.33;;
16516;SDS011;8371;52.272;9.746;2023-08-31T13:38:54;0.30;;;0.30;;
16516;SDS011;8371;52.272;9.746;2023-08-31T13:41:20;0.30;;;0.30;;
16516;SDS011;8371;52.272;9.746;2023-08-31T13:43:45;0.30;;;0.30;;
16516;SDS011;8371;52.272;9.746;2023-08-31T13:46:11;0.20;;;0.20;;
16516;SDS011;8371;52.272;9.746;2023-08-31T13:48:37;0.43;;;0.43;;
16516;SDS011;8371;52.272;9.746;2023-08-31T13:51:03;0.30;;;0.30;;
16516;SDS011;8371;52.272;9.746;2023-08-31T13:53:28;0.27;;;0.27;;
16516;SDS011;8371;52.272;9.746;2023-08-31T13:55:54;0.20;;;0.20;;
16516;SDS011;8371;52.272;9.746;2023-08-31T13:58:20;0.30;;;0.30;;
16516;SDS011;8371;52.272;9.746;2023-08-31T14:00:46;0.40;;;0.40;;
16516;SDS011;8371;52.272;9.746;2023-08-31T14:03:12;0.40;;;0.40;;
16516;SDS011;8371;52.272;9.746;2023-08-31T14:05:38;0.30;;;0.30;;
16516;SDS011;8371;52.272;9.746;2023-08-31T14:08:04;0.50;;;0.50;;
16516;SDS011;8371;52.272;9.746;2023-08-31T14:10:31;0.30;;;0.30;;
16516;SDS011;8371;52.272;9.746;2023-08-31T14:12:58;0.30;;;0.30;;
16516;SDS011;8371;52.272;9.746;2023-08-31T14:15:24;0.30;;;0.30;;
16516;SDS011;8371;52.272;9.746;2023-08-31T14:17:50;0.20;;;0.20;;
16516;SDS011;8371;52.272;9.746;2023-08-31T14:20:16;0.57;;;0.20;;
16516;SDS011;8371;52.272;9.746;2023-08-31T14:22:42;0.13;;;0.13;;
16516;SDS011;8371;52.272;9.746;2023-08-31T14:25:10;0.30;;;0.30;;
16516;SDS011;8371;52.272;9.746;2023-08-31T14:27:36;0.30;;;0.30;;
16516;SDS011;8371;52.272;9.746;2023-08-31T14:30:02;0.33;;;0.30;;
16516;SDS011;8371;52.272;9.746;2023-08-31T14:32:28;0.40;;;0.40;;
16516;SDS011;8371;52.272;9.746;2023-08-31T14:34:54;0.50;;;0.23;;
16516;SDS011;8371;52.272;9.746;2023-08-31T14:37:20;0.80;;;0.40;;
16516;SDS011;8371;52.272;9.746;2023-08-31T14:39:46;0.20;;;0.20;;
16516;SDS011;8371;52.272;9.746;2023-08-31T14:42:12;0.27;;;0.27;;
16516;SDS011;8371;52.272;9.746;2023-08-31T14:44:38;0.30;;;0.20;;
16516;SDS011;8371;52.272;9.746;2023-08-31T14:47:03;0.40;;;0.40;;
16516;SDS011;8371;52.272;9.746;2023-08-31T14:49:29;0.30;;;0.30;;
16516;SDS011;8371;52.272;9.746;2023-08-31T14:51:55;0.30;;;0.30;;
16516;SDS011;8371;52.272;9.746;2023-08-31T14:54:20;0.50;;;0.50;;
16516;SDS011;8371;52.272;9.746;2023-08-31T14:56:47;0.20;;;0.20;;
16516;SDS011;8371;52.272;9.746;2023-08-31T14:59:13;0.63;;;0.33;;
16516;SDS011;8371;52.272;9.746;2023-08-31T15:01:39;0.53;;;0.50;;
16516;SDS011;8371;52.272;9.746;2023-08-31T15:04:04;0.47;;;0.30;;
16516;SDS011;8371;52.272;9.746;2023-08-31T15:06:30;0.40;;;0.37;;
16516;SDS011;8371;52.272;9.746;2023-08-31T15:08:58;0.40;;;0.40;;
16516;SDS011;8371;52.272;9.746;2023-08-31T15:11:27;0.37;;;0.30;;
16516;SDS011;8371;52.272;9.746;2023-08-31T15:13:53;0.57;;;0.30;;
16516;SDS011;8371;52.272;9.746;2023-08-31T15:16:28;3.10;;;0.60;;
16516;SDS011;8371;52.272;9.746;2023-08-31T15:18:54;0.30;;;0.30;;